createdAt,value
2022-10-08T00:00:15.334Z,68501.16
2022-10-08T00:02:42.873Z,68497.53
2022-10-08T00:05:11.025Z,68518.56
2022-10-08T00:07:44.821Z,68502.28
2022-10-08T00:10:12.747Z,68500.19
2022-10-08T00:12:57.212Z,68505.69
2022-10-08T00:15:42.186Z,68514.03
2022-10-08T00:18:09.539Z,68524.06
2022-10-08T00:20:37.033Z,68523.84
2022-10-08T00:23:04.395Z,68522.16
2022-10-08T00:25:31.723Z,68507.03
2022-10-08T00:27:59.255Z,68506.25
2022-10-08T00:30:26.785Z,68496.59
2022-10-08T00:32:59.912Z,68489.03
2022-10-08T00:35:28.451Z,68495.84
2022-10-08T00:37:56.576Z,68497.53
2022-10-08T00:40:25.183Z,68507.03
2022-10-08T00:42:54.484Z,68503.06
2022-10-08T00:45:21.973Z,68506.47
2022-10-08T00:47:49.969Z,68483.72
2022-10-08T00:50:22.878Z,68494.53
2022-10-08T00:52:55.163Z,68482.59
2022-10-08T00:55:27.751Z,68482.41
2022-10-08T00:58:01.763Z,68475.78
2022-10-08T01:00:30.470Z,68469.56
2022-10-08T01:02:58.474Z,68459.53
2022-10-08T01:05:59.003Z,68461.41
2022-10-08T01:09:03.624Z,68452.16
2022-10-08T01:11:44.446Z,68451.22
2022-10-08T01:14:44.528Z,68466.16
2022-10-08T01:17:42.908Z,68482.97
2022-10-08T01:20:21.555Z,68490.91
2022-10-08T01:23:26.729Z,68480.53
2022-10-08T01:26:22.867Z,68475.41
2022-10-08T01:29:09.395Z,68479.19
2022-10-08T01:32:02.066Z,68464.63
2022-10-08T01:34:37.782Z,68473.53
2022-10-08T01:37:17.774Z,68472.38
2022-10-08T01:39:49.031Z,68472.78
2022-10-08T01:42:19.287Z,68475.78
2022-10-08T01:44:55.164Z,68479.56
2022-10-08T01:47:29.418Z,68482.03
2022-10-08T01:50:13.552Z,68490.34
2022-10-08T01:52:54.832Z,68491.50
2022-10-08T01:55:29.886Z,68490.34
2022-10-08T01:58:04.206Z,68512.31
2022-10-08T02:00:34.708Z,68502.09
2022-10-08T02:03:04.638Z,68517.06
2022-10-08T02:05:36.407Z,68525.19
2022-10-08T02:08:04.614Z,68522.34
2022-10-08T02:10:32.655Z,68522.34
2022-10-08T02:13:00.494Z,68526.13
2022-10-08T02:16:07.150Z,68518.00
2022-10-08T02:18:45.333Z,68528.41
2022-10-08T02:21:20.763Z,68547.88
2022-10-08T02:23:56.119Z,68541.09
2022-10-08T02:26:30.035Z,68544.88
2022-10-08T02:29:04.247Z,68535.78
2022-10-08T02:31:38.216Z,68534.25
2022-10-08T02:34:17.912Z,68535.22
2022-10-08T02:36:52.528Z,68534.81
2022-10-08T02:39:21.401Z,68535.97
2022-10-08T02:41:54.403Z,68533.50
2022-10-08T02:44:34.732Z,68541.66
2022-10-08T02:47:09.130Z,68549.78
2022-10-08T02:49:44.413Z,68553.94
2022-10-08T02:52:40.311Z,68554.88
2022-10-08T02:55:41.784Z,68561.50
2022-10-08T02:58:12.084Z,68545.78
2022-10-08T03:00:50.202Z,68539.94
2022-10-08T03:03:21.245Z,68541.81
2022-10-08T03:05:52.782Z,68545.06
2022-10-08T03:08:22.131Z,68543.34
2022-10-08T03:10:50.134Z,68517.22
2022-10-08T03:13:28.863Z,68541.25
2022-10-08T03:15:58.259Z,68558.50
2022-10-08T03:18:26.898Z,68565.50
2022-10-08T03:20:55.982Z,68571.56
2022-10-08T03:23:24.281Z,68562.06
2022-10-08T03:25:51.643Z,68564.94
2022-10-08T03:28:19.500Z,68573.25
2022-10-08T03:30:47.720Z,68577.41
2022-10-08T03:33:15.182Z,68539.34
2022-10-08T03:35:46.688Z,68566.03
2022-10-08T03:38:17.889Z,68568.72
2022-10-08T03:40:58.211Z,68576.84
2022-10-08T03:43:32.168Z,68571.16
2022-10-08T03:46:00.085Z,68566.63
2022-10-08T03:48:27.827Z,68545.00
2022-10-08T03:51:00.953Z,68561.72
2022-10-08T03:53:32.471Z,68570.03
2022-10-08T03:56:05.063Z,68571.72
2022-10-08T03:58:36.512Z,68576.47
2022-10-08T04:01:07.060Z,68583.09
2022-10-08T04:03:38.271Z,68580.25
2022-10-08T04:06:06.075Z,68575.13
2022-10-08T04:08:35.097Z,68567.19
2022-10-08T04:11:07.527Z,68566.25
2022-10-08T04:13:37.933Z,68564.38
2022-10-08T04:16:13.790Z,68574.38
2022-10-08T04:18:47.180Z,68565.84
2022-10-08T04:21:22.786Z,68576.84
2022-10-08T04:23:51.118Z,68567.75
2022-10-08T04:26:18.514Z,68574.00
2022-10-08T04:28:46.312Z,68572.47
2022-10-08T04:31:18.424Z,68567.75
2022-10-08T04:33:46.606Z,68595.78
2022-10-08T04:36:17.404Z,68609.78
2022-10-08T04:38:50.807Z,68588.16
2022-10-08T04:41:24.793Z,68620.38
2022-10-08T04:43:54.229Z,68629.47
2022-10-08T04:46:31.801Z,68620.56
2022-10-08T04:49:00.712Z,68644.44
2022-10-08T04:51:32.891Z,68638.34
2022-10-08T04:54:18.715Z,68651.06
2022-10-08T04:56:56.795Z,68653.34
2022-10-08T04:59:24.702Z,68653.13
2022-10-08T05:02:11.104Z,68640.84
2022-10-08T05:04:50.318Z,68652.38
2022-10-08T05:07:18.290Z,68657.13
2022-10-08T05:09:46.937Z,68643.28
2022-10-08T05:12:15.034Z,68652.38
2022-10-08T05:14:46.489Z,68641.97
2022-10-08T05:17:14.800Z,68634.22
2022-10-08T05:19:42.361Z,68631.34
2022-10-08T05:22:09.893Z,68624.16
2022-10-08T05:24:37.356Z,68612.25
2022-10-08T05:27:04.985Z,68605.03
2022-10-08T05:29:33.026Z,68599.19
2022-10-08T05:32:07.705Z,68595.00
2022-10-08T05:34:35.367Z,68592.75
2022-10-08T05:37:04.400Z,68603.94
2022-10-08T05:39:32.536Z,68598.81
2022-10-08T05:42:05.694Z,68602.41
2022-10-08T05:44:40.599Z,68607.31
2022-10-08T05:48:08.073Z,68608.06
2022-10-08T05:50:45.578Z,68616.03
2022-10-08T05:53:21.414Z,68617.72
2022-10-08T05:56:02.443Z,68632.88
2022-10-08T05:58:32.488Z,68631.56
2022-10-08T06:01:02.951Z,68629.66
2022-10-08T06:03:30.692Z,68643.09
2022-10-08T06:06:06.060Z,68632.69
2022-10-08T06:08:37.073Z,68633.81
2022-10-08T06:11:05.931Z,68636.09
2022-10-08T06:13:33.730Z,68640.63
2022-10-08T06:16:15.389Z,68641.41
2022-10-08T06:18:47.335Z,68637.22
2022-10-08T06:21:21.201Z,68639.88
2022-10-08T06:24:00.465Z,68630.41
2022-10-08T06:26:35.599Z,68626.81
2022-10-08T06:29:18.191Z,68615.06
2022-10-08T06:31:46.477Z,68613.94
2022-10-08T06:34:15.335Z,68618.28
2022-10-08T06:36:43.479Z,68589.28
2022-10-08T06:39:19.433Z,68614.91
2022-10-08T06:41:50.893Z,68615.63
2022-10-08T06:44:28.488Z,68613.38
2022-10-08T06:46:55.983Z,68613.75
2022-10-08T06:49:30.567Z,68609.59
2022-10-08T06:52:01.254Z,68618.88
2022-10-08T06:54:28.790Z,68613.75
2022-10-08T06:57:01.231Z,68622.25
2022-10-08T06:59:29.990Z,68624.34
2022-10-08T07:01:59.524Z,68613.94
2022-10-08T07:04:28.559Z,68623.41
2022-10-08T07:07:30.419Z,68621.69
2022-10-08T07:10:05.931Z,68621.13
2022-10-08T07:12:53.311Z,68619.59
2022-10-08T07:15:25.106Z,68626.44
2022-10-08T07:18:23.526Z,68639.31
2022-10-08T07:21:24.204Z,68651.81
2022-10-08T07:23:52.133Z,68650.13
2022-10-08T07:26:21.593Z,68656.00
2022-10-08T07:28:58.063Z,68660.91
2022-10-08T07:31:30.346Z,68655.44
2022-10-08T07:33:59.732Z,68655.78
2022-10-08T07:36:32.842Z,68651.22
2022-10-08T07:39:09.196Z,68662.63
2022-10-08T07:41:36.692Z,68672.50
2022-10-08T07:44:05.471Z,68669.44
2022-10-08T07:46:35.462Z,68676.84
2022-10-08T07:49:05.061Z,68663.78
2022-10-08T07:51:34.889Z,68664.16
2022-10-08T07:54:05.137Z,68662.63
2022-10-08T07:56:46.198Z,68668.69
2022-10-08T07:59:16.258Z,68670.97
2022-10-08T08:01:44.219Z,68671.16
2022-10-08T08:04:11.775Z,68678.16
2022-10-08T08:06:45.423Z,68682.88
2022-10-08T08:09:14.578Z,68674.00
2022-10-08T08:11:42.461Z,68670.56
2022-10-08T08:14:09.881Z,68673.03
2022-10-08T08:16:38.463Z,68701.25
2022-10-08T08:19:07.937Z,68718.69
2022-10-08T08:21:37.941Z,68712.00
2022-10-08T08:24:08.215Z,68732.13
2022-10-08T08:26:38.015Z,68731.00
2022-10-08T08:29:12.039Z,68748.25
2022-10-08T08:31:44.998Z,68758.69
2022-10-08T08:34:16.406Z,68752.03
2022-10-08T08:36:46.328Z,68739.34
2022-10-08T08:39:22.302Z,68751.28
2022-10-08T08:42:14.088Z,68734.78
2022-10-08T08:44:44.900Z,68731.41
2022-10-08T08:47:50.296Z,68764.16
2022-10-08T08:50:34.821Z,68767.75
2022-10-08T08:53:42.278Z,68799.63
2022-10-08T08:56:16.645Z,68810.81
2022-10-08T08:59:32.238Z,68797.34
2022-10-08T09:02:06.086Z,68778.00
2022-10-08T09:05:06.088Z,68792.78
2022-10-08T09:07:49.783Z,68768.72
2022-10-08T09:10:39.203Z,68785.97
2022-10-08T09:13:17.043Z,68778.19
2022-10-08T09:15:45.970Z,68793.91
2022-10-08T09:18:16.035Z,68779.31
2022-10-08T09:20:45.763Z,68777.41
2022-10-08T09:23:23.086Z,68773.09
2022-10-08T09:26:01.743Z,68747.78
2022-10-08T09:28:45.234Z,68750.53
2022-10-08T09:31:40.619Z,68753.56
2022-10-08T09:34:13.522Z,68767.19
2022-10-08T09:37:29.977Z,68770.63
2022-10-08T09:40:15.430Z,68762.47
2022-10-08T09:42:43.255Z,68780.28
2022-10-08T09:45:44.866Z,68752.34
2022-10-08T09:48:28.141Z,68758.28
2022-10-08T09:51:20.732Z,68775.16
2022-10-08T09:53:54.291Z,68764.53
2022-10-08T09:59:23.767Z,68786.53
2022-10-08T10:01:55.756Z,68767.75
2022-10-08T10:04:31.060Z,68760.19
2022-10-08T10:06:59.582Z,68755.44
2022-10-08T10:10:14.087Z,68740.97
2022-10-08T10:13:11.018Z,68735.94
2022-10-08T10:15:49.340Z,68746.75
2022-10-08T10:18:25.938Z,68794.50
2022-10-08T10:20:58.783Z,68796.75
2022-10-08T10:23:32.010Z,68799.63
2022-10-08T10:26:17.666Z,68803.06
2022-10-08T10:28:59.757Z,68800.75
2022-10-08T10:31:39.872Z,68780.78
2022-10-08T10:34:23.777Z,68782.16
2022-10-08T10:37:00.086Z,68802.84
2022-10-08T10:40:10.405Z,68799.06
2022-10-08T10:42:51.403Z,68792.78
2022-10-08T10:45:49.348Z,68799.63
2022-10-08T10:48:31.133Z,68804.38
2022-10-08T10:51:53.747Z,68811.00
2022-10-08T10:54:57.717Z,68811.41
2022-10-08T10:57:52.597Z,68824.06
2022-10-08T11:00:57.217Z,68814.59
2022-10-08T11:03:59.809Z,68795.81
2022-10-08T11:07:06.254Z,68799.81
2022-10-08T11:09:50.948Z,68782.16
2022-10-08T11:12:46.600Z,68782.75
2022-10-08T11:15:32.893Z,68785.78
2022-10-08T11:18:30.185Z,68773.38
2022-10-08T11:21:17.457Z,68801.34
2022-10-08T11:24:03.616Z,68806.44
2022-10-08T11:26:48.786Z,68795.63
2022-10-08T11:29:38.918Z,68799.81
2022-10-08T11:32:14.303Z,68781.03
2022-10-08T11:34:57.805Z,68771.75
2022-10-08T11:37:55.989Z,68771.19
2022-10-08T11:40:54.979Z,68790.91
2022-10-08T11:43:52.545Z,68787.09
2022-10-08T11:46:33.546Z,68784.81
2022-10-08T11:49:16.697Z,68808.16
2022-10-08T11:52:00.586Z,68803.63
2022-10-08T11:54:55.275Z,68799.06
2022-10-08T11:58:02.886Z,68801.69
2022-10-08T12:00:35.046Z,68807.59
2022-10-08T12:03:23.642Z,68810.44
2022-10-08T12:05:59.829Z,68799.06
2022-10-08T12:08:53.587Z,68782.75
2022-10-08T12:11:37.843Z,68774.75
2022-10-08T12:14:14.141Z,68812.72
2022-10-08T12:16:49.704Z,68814.41
2022-10-08T12:19:35.796Z,68854.41
2022-10-08T12:22:45.364Z,68921.75
2022-10-08T12:25:39.324Z,68964.25
2022-10-08T12:28:20.275Z,68960.09
2022-10-08T12:30:52.750Z,68917.38
2022-10-08T12:33:23.335Z,68858.38
2022-10-08T12:36:08.408Z,68829.94
2022-10-08T12:42:19.973Z,68866.19
2022-10-08T12:45:06.678Z,68887.97
2022-10-08T12:51:50.502Z,68914.72
2022-10-08T12:54:22.914Z,68917.38
2022-10-08T13:02:04.099Z,68955.16
2022-10-08T13:04:50.896Z,68984.97
2022-10-08T13:07:29.448Z,68978.13
2022-10-08T13:10:00.905Z,68980.19
2022-10-08T13:12:29.882Z,68949.84
2022-10-08T13:15:09.583Z,68890.25
2022-10-08T13:17:38.756Z,68865.63
2022-10-08T13:20:11.033Z,68855.38
2022-10-08T13:22:46.755Z,68841.72
2022-10-08T13:25:33.405Z,68824.66
2022-10-08T13:28:59.035Z,68816.91
2022-10-08T13:31:26.191Z,68792.38
2022-10-08T13:33:56.096Z,68789.38
2022-10-08T13:36:26.783Z,68765.41
2022-10-08T13:38:55.552Z,68796.19
2022-10-08T13:41:26.703Z,68798.28
2022-10-08T13:43:55.158Z,68803.06
2022-10-08T13:46:23.743Z,68804.19
2022-10-08T13:49:02.622Z,68806.09
2022-10-08T13:51:34.997Z,68820.09
2022-10-08T13:54:04.229Z,68822.94
2022-10-08T13:56:37.305Z,68773.44
2022-10-08T13:59:07.956Z,68758.09
2022-10-08T14:01:52.912Z,68757.91
2022-10-08T14:04:21.347Z,68748.63
2022-10-08T14:06:55.237Z,68712.25
2022-10-08T14:09:28.649Z,68684.22
2022-10-08T14:12:05.256Z,68679.50
2022-10-08T14:14:32.925Z,68664.88
2022-10-08T14:17:06.706Z,68641.00
2022-10-08T14:19:42.308Z,68629.66
2022-10-08T14:22:17.912Z,68617.72
2022-10-08T14:24:50.087Z,68611.69
2022-10-08T14:27:18.578Z,68602.41
2022-10-08T14:29:59.546Z,68592.94
2022-10-08T14:32:28.789Z,68579.13
2022-10-08T14:35:17.011Z,68582.31
2022-10-08T14:37:51.212Z,68574.56
2022-10-08T14:43:44.485Z,68586.31
2022-10-08T14:46:11.900Z,68583.28
2022-10-08T14:48:39.828Z,68582.31
2022-10-08T14:51:09.981Z,68573.25
2022-10-08T14:53:38.536Z,68568.91
2022-10-08T14:56:12.764Z,68567.94
2022-10-08T14:58:54.343Z,68565.69
2022-10-08T15:01:39.217Z,68544.09
2022-10-08T15:04:07.694Z,68532.56
2022-10-08T15:06:36.350Z,68522.72
2022-10-08T15:09:05.227Z,68519.88
2022-10-08T15:11:35.028Z,68521.97
2022-10-08T15:14:02.990Z,68517.63
2022-10-08T15:16:31.660Z,68510.25
2022-10-08T15:19:01.264Z,68510.44
2022-10-08T15:21:43.294Z,68512.69
2022-10-08T15:24:10.970Z,68508.53
2022-10-08T15:26:38.959Z,68514.97
2022-10-08T15:29:22.624Z,68507.97
2022-10-08T15:31:51.503Z,68522.34
2022-10-08T15:34:20.159Z,68519.31
2022-10-08T15:36:47.688Z,68521.03
2022-10-08T15:39:20.729Z,68512.88
2022-10-08T15:41:51.788Z,68521.22
2022-10-08T15:44:27.000Z,68514.97
2022-10-08T15:47:02.641Z,68515.53
2022-10-08T15:49:40.028Z,68519.50
2022-10-08T15:52:24.246Z,68514.03
2022-10-08T15:54:52.187Z,68522.16
2022-10-08T15:57:19.764Z,68513.81
2022-10-08T15:59:48.291Z,68516.28
2022-10-08T16:02:17.921Z,68504.75
2022-10-08T16:04:47.111Z,68512.50
2022-10-08T16:07:14.539Z,68506.25
2022-10-08T16:09:41.872Z,68509.13
2022-10-08T16:12:10.353Z,68518.94
2022-10-08T16:14:39.821Z,68508.72
2022-10-08T16:17:10.872Z,68525.00
2022-10-08T16:19:38.693Z,68513.25
2022-10-08T16:22:08.811Z,68513.47
2022-10-08T16:25:08.739Z,68492.06
2022-10-08T16:27:39.833Z,68487.72
2022-10-08T16:30:13.283Z,68484.28
2022-10-08T16:32:44.625Z,68477.50
2022-10-08T16:35:19.287Z,68482.03
2022-10-08T16:37:57.393Z,68475.22
2022-10-08T16:40:32.554Z,68468.03
2022-10-08T16:43:13.433Z,68476.34
2022-10-08T16:45:43.114Z,68463.88
2022-10-08T16:48:12.728Z,68447.41
2022-10-08T16:50:43.243Z,68438.91
2022-10-08T16:53:15.058Z,68428.72
2022-10-08T16:55:44.174Z,68422.28
2022-10-08T16:58:18.020Z,68412.63
2022-10-08T17:00:57.898Z,68404.88
2022-10-08T17:03:38.176Z,68399.78
2022-10-08T17:06:09.515Z,68397.88
2022-10-08T17:08:42.531Z,68392.78
2022-10-08T17:11:15.673Z,68388.44
2022-10-08T17:13:46.010Z,68393.91
2022-10-08T17:16:15.210Z,68390.16
2022-10-08T17:18:45.962Z,68382.56
2022-10-08T17:21:19.268Z,68382.41
2022-10-08T17:23:47.934Z,68369.16
2022-10-08T17:26:18.047Z,68373.69
2022-10-08T17:28:50.539Z,68363.50
2022-10-08T17:31:24.219Z,68365.94
2022-10-08T17:34:01.586Z,68363.13
2022-10-08T17:37:06.212Z,68350.44
2022-10-08T17:39:45.575Z,68348.19
2022-10-08T17:42:17.910Z,68338.72
2022-10-08T17:44:47.171Z,68334.41
2022-10-08T17:47:24.576Z,68330.22
2022-10-08T17:49:55.340Z,68321.53
2022-10-08T17:52:26.381Z,68324.75
2022-10-08T17:54:55.096Z,68329.28
2022-10-08T17:57:25.827Z,68331.00
2022-10-08T17:59:53.581Z,68334.59
2022-10-08T18:02:21.125Z,68335.16
2022-10-08T18:04:49.143Z,68338.94
2022-10-08T18:07:16.557Z,68335.53
2022-10-08T18:09:44.314Z,68336.28
2022-10-08T18:12:11.880Z,68333.63
2022-10-08T18:14:40.029Z,68327.56
2022-10-08T18:17:07.434Z,68326.66
2022-10-08T18:19:34.898Z,68317.38
2022-10-08T18:22:02.703Z,68318.13
2022-10-08T18:24:30.065Z,68314.91
2022-10-08T18:26:59.953Z,68303.38
2022-10-08T18:29:27.389Z,68305.09
2022-10-08T18:31:54.735Z,68297.16
2022-10-08T18:34:22.509Z,68312.25
2022-10-08T18:36:50.323Z,68304.50
2022-10-08T18:39:28.295Z,68303.94
2022-10-08T18:41:58.885Z,68300.53
2022-10-08T18:44:28.657Z,68292.63
2022-10-08T18:46:56.010Z,68289.41
2022-10-08T18:49:30.938Z,68283.38
2022-10-08T18:51:58.964Z,68277.91
2022-10-08T18:54:26.226Z,68271.66
2022-10-08T18:57:07.659Z,68270.53
2022-10-08T18:59:40.881Z,68269.94
2022-10-08T19:02:13.602Z,68262.97
2022-10-08T19:04:41.193Z,68262.00
2022-10-08T19:07:09.091Z,68260.13
2022-10-08T19:09:38.070Z,68249.38
2022-10-08T19:12:09.888Z,68249.19
2022-10-08T19:14:38.606Z,68259.00
2022-10-08T19:17:06.561Z,68251.25
2022-10-08T19:19:35.984Z,68250.31
2022-10-08T19:22:03.606Z,68251.81
2022-10-08T19:24:31.174Z,68241.81
2022-10-08T19:27:07.551Z,68236.53
2022-10-08T19:29:36.499Z,68238.59
2022-10-08T19:32:05.180Z,68234.81
2022-10-08T19:34:33.522Z,68228.03
2022-10-08T19:37:05.013Z,68225.56
2022-10-08T19:39:34.083Z,68225.56
2022-10-08T19:42:04.224Z,68206.91
2022-10-08T19:44:38.803Z,68207.09
2022-10-08T19:47:06.374Z,68209.72
2022-10-08T19:49:34.792Z,68199.91
2022-10-08T19:52:04.650Z,68210.09
2022-10-08T19:54:33.173Z,68192.56
2022-10-08T19:57:08.840Z,68191.97
2022-10-08T19:59:39.330Z,68181.03
2022-10-08T20:02:07.150Z,68187.66
2022-10-08T20:04:34.493Z,68182.72
2022-10-08T20:07:12.021Z,68193.66
2022-10-08T20:09:40.339Z,68178.75
2022-10-08T20:12:07.652Z,68173.47
2022-10-08T20:14:34.998Z,68164.06
2022-10-08T20:17:04.426Z,68172.16
2022-10-08T20:19:31.977Z,68165.75
2022-10-08T20:21:59.280Z,68161.22
2022-10-08T20:24:28.166Z,68153.28
2022-10-08T20:26:56.267Z,68158.38
2022-10-08T20:29:30.016Z,68155.00
2022-10-08T20:32:08.931Z,68153.50
2022-10-08T20:34:37.652Z,68147.63
2022-10-08T20:37:05.122Z,68145.38
2022-10-08T20:39:32.494Z,68152.34
2022-10-08T20:42:01.962Z,68133.09
2022-10-08T20:44:29.317Z,68136.50
2022-10-08T20:47:00.885Z,68129.53
2022-10-08T20:49:34.437Z,68117.03
2022-10-08T20:52:03.990Z,68119.50
2022-10-08T20:54:32.115Z,68115.91
2022-10-08T20:56:59.773Z,68119.34
2022-10-08T20:59:28.481Z,68111.22
2022-10-08T21:01:56.630Z,68110.25
2022-10-08T21:04:30.608Z,68110.25
2022-10-08T21:07:19.930Z,68109.69
2022-10-08T21:09:48.773Z,68112.69
2022-10-08T21:12:16.264Z,68103.47
2022-10-08T21:14:43.821Z,68102.72
2022-10-08T21:17:11.144Z,68101.56
2022-10-08T21:19:38.513Z,68102.50
2022-10-08T21:22:07.879Z,68097.78
2022-10-08T21:24:36.742Z,68091.19
2022-10-08T21:27:05.224Z,68097.78
2022-10-08T21:29:33.064Z,68092.50
2022-10-08T21:32:00.726Z,68105.69
2022-10-08T21:34:28.474Z,68095.91
2022-10-08T21:37:00.764Z,68091.94
2022-10-08T21:39:28.273Z,68095.72
2022-10-08T21:42:04.366Z,68078.56
2022-10-08T21:44:34.486Z,68076.13
2022-10-08T21:47:01.951Z,68065.72
2022-10-08T21:49:29.319Z,68069.31
2022-10-08T21:51:58.467Z,68053.09
2022-10-08T21:54:26.255Z,68056.31
2022-10-08T21:56:53.777Z,68054.81
2022-10-08T21:59:22.040Z,68055.94
2022-10-08T22:01:50.594Z,68057.66
2022-10-08T22:04:22.965Z,68046.31
2022-10-08T22:06:55.650Z,68054.41
2022-10-08T22:09:26.326Z,68051.41
2022-10-08T22:11:55.182Z,68055.75
2022-10-08T22:14:23.104Z,68052.72
2022-10-08T22:17:00.265Z,68043.31
2022-10-08T22:19:30.369Z,68048.38
2022-10-08T22:21:58.698Z,68046.13
2022-10-08T22:24:26.118Z,68051.41
2022-10-08T22:26:59.796Z,68046.50
2022-10-08T22:29:27.880Z,68047.81
2022-10-08T22:31:55.397Z,68042.94
2022-10-08T22:34:23.528Z,68043.84
2022-10-08T22:36:58.125Z,68032.94
2022-10-08T22:39:27.297Z,68033.13
2022-10-08T22:41:55.386Z,68028.22
2022-10-08T22:44:27.263Z,68024.06
2022-10-08T22:46:54.589Z,68025.56
2022-10-08T22:49:22.218Z,68022.19
2022-10-08T22:52:03.946Z,68022.94
2022-10-08T22:54:31.301Z,68015.22
2022-10-08T22:56:58.745Z,68014.09
2022-10-08T22:59:27.846Z,68009.34
2022-10-08T23:01:57.884Z,68010.13
2022-10-08T23:04:34.882Z,68017.47
2022-10-08T23:07:02.684Z,68013.91
2022-10-08T23:09:30.142Z,68016.72
2022-10-08T23:12:00.383Z,68003.69
2022-10-08T23:14:28.411Z,68005.97
2022-10-08T23:16:56.099Z,68005.97
2022-10-08T23:19:23.419Z,68011.44
2022-10-08T23:21:55.741Z,68013.13
2022-10-08T23:24:24.950Z,68010.13
2022-10-08T23:26:53.488Z,68004.84
2022-10-08T23:29:21.213Z,68003.31
2022-10-08T23:31:49.102Z,68001.06
2022-10-08T23:34:17.318Z,68000.31
2022-10-08T23:36:46.427Z,67999.38
2022-10-08T23:39:16.394Z,67994.09
2022-10-08T23:41:53.112Z,67995.03
2022-10-08T23:44:23.157Z,67989.19
2022-10-08T23:46:50.552Z,67992.38
2022-10-08T23:49:17.805Z,67982.06
2022-10-08T23:51:45.445Z,67987.31
2022-10-08T23:54:13.486Z,67991.47
2022-10-08T23:57:06.426Z,67992.97
2022-10-08T23:59:34.397Z,67993.34
